Time;durP1;ratioP1;P1;durP2;ratioP2;P2;SDS_P1;SDS_P2;PMS_P1;PMS_P2;Temp;Humidity;BMP_temperature;BMP_pressure;BME280_temperature;BME280_humidity;BME280_pressure;Samples;Min_cycle;Max_cycle;Signal;HPM_P1;HPM_P2
2021/05/14 00:01:20;;;;;;;3.40;1.48;;;;;;;20.48;40.92;100826.59;144992;577;6004;-75
2021/05/14 00:03:48;;;;;;;3.50;1.30;;;;;;;20.38;41.23;100826.72;144992;589;6004;-76
2021/05/14 00:06:15;;;;;;;3.78;1.30;;;;;;;20.49;40.90;100832.78;144992;579;6004;-75
2021/05/14 00:08:42;;;;;;;2.95;1.08;;;;;;;20.57;40.81;100833.56;144992;670;6004;-76
2021/05/14 00:11:08;;;;;;;5.87;1.33;;;;;;;20.65;40.88;100836.16;144992;646;6004;-76
2021/05/14 00:13:35;;;;;;;3.60;1.40;;;;;;;20.64;40.75;100837.03;144992;659;6004;-76
2021/05/14 00:16:01;;;;;;;5.12;0.90;;;;;;;20.69;40.86;100835.22;144992;596;6004;-76
2021/05/14 00:18:28;;;;;;;3.75;1.00;;;;;;;20.75;40.68;100832.53;144992;614;6004;-76
2021/05/14 00:20:54;;;;;;;2.72;1.00;;;;;;;20.77;40.53;100838.66;144992;560;6004;-75
2021/05/14 00:23:21;;;;;;;3.83;1.23;;;;;;;20.65;39.34;100842.31;144992;601;6004;-75
2021/05/14 00:25:47;;;;;;;4.12;1.40;;;;;;;20.56;39.69;100845.00;144991;584;6000;-75
2021/05/14 00:28:14;;;;;;;4.57;1.80;;;;;;;20.44;40.60;100840.72;144992;632;6002;-75
2021/05/14 00:30:40;;;;;;;3.40;1.50;;;;;;;20.51;40.57;100835.38;144992;603;6002;-75
2021/05/14 00:33:07;;;;;;;3.70;1.40;;;;;;;20.45;39.97;100834.53;144992;570;6002;-75
2021/05/14 00:35:33;;;;;;;6.18;1.90;;;;;;;20.41;40.40;100837.22;144992;679;6002;-74
2021/05/14 00:38:00;;;;;;;3.00;1.20;;;;;;;20.49;40.99;100830.13;144992;572;6002;-76
2021/05/14 00:40:26;;;;;;;3.33;1.33;;;;;;;20.51;40.64;100832.75;144992;619;6002;-76
2021/05/14 00:42:53;;;;;;;4.72;1.50;;;;;;;20.55;40.60;100834.47;144992;603;6002;-75
2021/05/14 00:45:19;;;;;;;4.47;0.95;;;;;;;20.57;40.72;100833.56;144992;584;6002;-76
2021/05/14 00:47:46;;;;;;;4.03;0.95;;;;;;;20.52;40.19;100832.75;144992;657;6002;-75
2021/05/14 00:50:13;;;;;;;12.30;2.20;;;;;;;20.39;39.47;100836.34;144992;583;6002;-76
2021/05/14 00:52:41;;;;;;;5.55;1.48;;;;;;;20.36;40.40;100839.03;144992;634;6011;-75
2021/05/14 00:55:10;;;;;;;2.55;0.70;;;;;;;20.36;40.11;100845.19;144992;564;6002;-77
2021/05/14 00:57:37;;;;;;;6.25;1.20;;;;;;;20.45;39.75;100852.12;144992;595;6002;-76
2021/05/14 01:00:05;;;;;;;4.28;1.10;;;;;;;20.52;40.59;100847.66;144992;566;6002;-76
2021/05/14 01:02:31;;;;;;;3.25;1.10;;;;;;;20.54;39.04;100845.91;144992;629;6002;-76
2021/05/14 01:04:58;;;;;;;4.70;1.30;;;;;;;20.42;38.58;100842.47;144992;594;6002;-76
2021/05/14 01:07:25;;;;;;;4.03;1.20;;;;;;;20.48;40.53;100850.34;144992;564;6016;-75
2021/05/14 01:09:51;;;;;;;3.67;1.20;;;;;;;20.54;40.12;100848.56;144992;605;6002;-76
2021/05/14 01:12:18;;;;;;;4.47;1.00;;;;;;;20.42;39.86;100855.66;144992;571;6002;-76
2021/05/14 01:14:44;;;;;;;2.85;0.95;;;;;;;20.36;38.81;100847.81;144992;613;6002;-76
2021/05/14 01:17:11;;;;;;;4.30;1.08;;;;;;;20.24;39.87;100848.78;144992;585;6002;-76
2021/05/14 01:19:38;;;;;;;2.85;0.85;;;;;;;20.16;39.16;100850.63;144992;570;6002;-74
2021/05/14 01:22:04;;;;;;;1.95;0.60;;;;;;;20.06;38.71;100868.25;144992;718;6002;-75
2021/05/14 01:24:32;;;;;;;2.58;0.95;;;;;;;20.07;38.59;100864.72;144992;569;6002;-76
2021/05/14 01:26:59;;;;;;;4.03;1.00;;;;;;;20.11;39.97;100857.69;144992;575;6002;-76
2021/05/14 01:29:26;;;;;;;2.78;1.15;;;;;;;20.06;38.61;100860.34;144992;571;6002;-74
2021/05/14 01:31:53;;;;;;;3.70;0.73;;;;;;;20.12;38.96;100857.69;144992;591;6002;-75
2021/05/14 01:34:20;;;;;;;3.97;0.88;;;;;;;20.08;38.27;100845.41;144992;604;6002;-76
2021/05/14 01:36:46;;;;;;;5.15;1.27;;;;;;;20.02;38.60;100855.97;144992;598;6002;-74
2021/05/14 01:39:17;;;;;;;6.68;1.33;;;;;;;20.17;39.74;100857.66;144992;569;6002;-77
2021/05/14 01:41:44;;;;;;;4.70;1.10;;;;;;;20.10;39.01;100853.28;144993;614;6010;-75
2021/05/14 01:44:10;;;;;;;3.83;1.20;;;;;;;20.00;38.49;100852.50;144993;566;6002;-75
2021/05/14 01:46:37;;;;;;;4.50;1.20;;;;;;;19.84;39.07;100848.22;144993;603;6002;-77
2021/05/14 01:49:03;;;;;;;3.40;1.02;;;;;;;19.77;38.88;100843.84;144993;604;6002;-77
2021/05/14 01:51:30;;;;;;;5.72;0.90;;;;;;;19.85;39.77;100848.22;144993;608;6002;-76
2021/05/14 01:53:57;;;;;;;3.03;1.00;;;;;;;19.75;39.20;100830.66;144993;613;6002;-78
2021/05/14 01:56:23;;;;;;;3.78;1.08;;;;;;;19.77;39.85;100835.97;144993;610;6002;-77
2021/05/14 01:58:50;;;;;;;2.72;0.90;;;;;;;19.93;40.12;100838.50;144993;658;6002;-77
2021/05/14 02:01:18;;;;;;;2.60;0.98;;;;;;;19.90;39.70;100833.25;144993;607;6002;-77
2021/05/14 02:03:44;;;;;;;3.83;0.90;;;;;;;19.80;39.25;100828.91;144993;571;6002;-76
2021/05/14 02:06:11;;;;;;;2.78;0.90;;;;;;;19.86;40.27;100828.00;144993;574;6002;-75
2021/05/14 02:08:38;;;;;;;5.00;0.90;;;;;;;19.60;39.49;100828.12;144993;610;6002;-76
2021/05/14 02:11:09;;;;;;;6.30;1.20;;;;;;;19.68;40.10;100836.87;144993;569;6002;-75
2021/05/14 02:13:37;;;;;;;2.03;0.85;;;;;;;19.64;40.54;100832.50;144992;589;6002;-75
2021/05/14 02:16:05;;;;;;;3.08;0.77;;;;;;;19.63;40.07;100841.25;144992;600;6002;-75
2021/05/14 02:18:33;;;;;;;2.75;0.75;;;;;;;19.68;40.38;100831.59;144992;580;6002;-75
2021/05/14 02:20:59;;;;;;;4.47;0.95;;;;;;;19.71;40.36;100837.72;144992;611;6002;-75
2021/05/14 02:23:26;;;;;;;2.37;0.80;;;;;;;19.69;40.11;100847.41;144992;570;6002;-75
2021/05/14 02:25:53;;;;;;;6.87;1.20;;;;;;;19.77;40.40;100850.00;144992;564;6002;-75
2021/05/14 02:28:19;;;;;;;4.05;1.25;;;;;;;19.85;40.02;100852.59;144993;676;6002;-75
2021/05/14 02:30:46;;;;;;;4.47;1.05;;;;;;;19.88;40.19;100855.19;144993;566;6002;-76
2021/05/14 02:33:13;;;;;;;5.20;1.08;;;;;;;19.84;40.38;100858.75;144993;581;6002;-76
2021/05/14 02:35:39;;;;;;;4.40;0.95;;;;;;;19.65;40.45;100855.31;144993;577;6002;-76
2021/05/14 02:38:08;;;;;;;5.82;1.25;;;;;;;19.65;40.52;100865.84;144993;618;6002;-77
2021/05/14 02:40:36;;;;;;;5.12;1.10;;;;;;;19.62;40.64;100858.84;144993;579;6002;-76
2021/05/14 02:43:05;;;;;;;3.05;1.00;;;;;;;19.70;40.67;100858.78;144993;587;6002;-76
2021/05/14 02:45:40;;;;;;;4.62;1.30;;;;;;;19.67;40.57;100864.94;144993;623;6002;-76
2021/05/14 02:48:17;;;;;;;4.82;1.40;;;;;;;19.78;40.63;100867.56;144993;563;6002;-76
2021/05/14 02:51:01;;;;;;;;;;;;;;;;;;;;;
2021/05/14 02:53:39;;;;;;;5.97;1.52;;;;;;;19.99;40.60;100877.06;144993;571;6000;-76
2021/05/14 02:56:17;;;;;;;3.00;1.30;;;;;;;20.14;40.45;100881.37;144993;646;6002;-83
2021/05/14 02:58:48;;;;;;;4.22;1.20;;;;;;;20.20;40.26;100891.88;144993;575;6002;-73
2021/05/14 03:01:17;;;;;;;3.97;1.58;;;;;;;20.10;40.80;100890.19;144993;595;6002;-75
2021/05/14 03:03:48;;;;;;;7.65;1.52;;;;;;;19.99;40.84;100892.03;144993;604;6003;-76
2021/05/14 03:06:15;;;;;;;4.43;1.42;;;;;;;20.00;40.96;100888.50;144993;615;6002;-75
2021/05/14 03:08:41;;;;;;;8.32;2.12;;;;;;;19.96;41.04;100884.13;144993;572;6002;-74
2021/05/14 03:11:08;;;;;;;7.40;1.60;;;;;;;19.75;40.64;100893.88;144993;578;6002;-76
2021/05/14 03:13:34;;;;;;;4.40;1.50;;;;;;;19.75;41.11;100896.50;144993;564;6002;-76
2021/05/14 03:16:01;;;;;;;7.10;1.42;;;;;;;19.81;40.79;100895.66;144993;583;6002;-76
2021/05/14 03:18:28;;;;;;;7.18;1.77;;;;;;;19.63;40.67;100909.72;144993;580;6002;-76
2021/05/14 03:20:55;;;;;;;5.35;1.58;;;;;;;19.64;41.11;100901.81;144994;587;5002;-76
2021/05/14 03:23:22;;;;;;;5.78;1.58;;;;;;;19.71;40.69;100913.19;144994;646;5002;-77
2021/05/14 03:25:49;;;;;;;8.25;1.83;;;;;;;19.71;40.82;100907.94;144994;571;5002;-76
2021/05/14 03:28:16;;;;;;;5.75;1.45;;;;;;;19.58;41.18;100915.91;144994;565;5002;-76
2021/05/14 03:30:43;;;;;;;5.85;1.75;;;;;;;19.56;41.34;100915.03;144994;591;5002;-75
2021/05/14 03:33:10;;;;;;;5.28;1.95;;;;;;;19.61;40.91;100916.78;144994;581;5002;-75
2021/05/14 03:35:37;;;;;;;9.05;1.73;;;;;;;19.53;41.30;100919.44;144994;570;5002;-75
2021/05/14 03:38:04;;;;;;;6.50;1.77;;;;;;;19.44;41.46;100925.63;144994;647;5002;-76
2021/05/14 03:40:35;;;;;;;7.47;1.70;;;;;;;19.41;42.33;100930.91;144994;563;5002;-76
2021/05/14 03:43:03;;;;;;;6.60;1.65;;;;;;;19.35;41.92;100934.41;144994;566;5002;-76
2021/05/14 03:45:29;;;;;;;12.25;2.25;;;;;;;19.46;41.81;100930.88;144994;575;5002;-76
2021/05/14 03:47:57;;;;;;;5.05;1.60;;;;;;;19.37;41.61;100932.63;144994;670;5002;-76
2021/05/14 03:50:31;;;;;;;11.45;1.90;;;;;;;19.35;41.98;100936.19;144994;564;5002;-76
2021/05/14 03:53:01;;;;;;;4.70;1.52;;;;;;;19.14;42.28;100932.72;144994;576;5002;-74
2021/05/14 03:55:28;;;;;;;4.32;1.20;;;;;;;19.05;42.93;100938.00;144994;576;5002;-75
2021/05/14 03:57:54;;;;;;;9.35;1.55;;;;;;;19.08;42.65;100942.37;144994;570;5002;-75
2021/05/14 04:00:22;;;;;;;4.50;1.10;;;;;;;19.01;42.80;100939.75;144994;588;5002;-76
2021/05/14 04:02:48;;;;;;;10.48;1.45;;;;;;;19.12;42.70;100936.22;144994;579;5002;-76
2021/05/14 04:05:22;;;;;;;5.97;1.40;;;;;;;19.14;42.47;100935.34;144994;590;5002;-76
2021/05/14 04:07:50;;;;;;;15.55;2.22;;;;;;;19.06;43.33;100939.75;144994;564;5002;-77
2021/05/14 04:10:31;;;;;;;15.32;2.33;;;;;;;19.03;43.26;100932.72;144994;587;5002;-76
2021/05/14 04:15:47;;;;;;;6.70;1.60;;;;;;;19.06;43.24;100939.75;144994;569;5004;-75
2021/05/14 04:18:13;;;;;;;9.02;1.58;;;;;;;19.09;43.69;100938.84;144994;588;5004;-76
2021/05/14 04:20:40;;;;;;;12.70;1.85;;;;;;;19.13;43.05;100945.87;144994;606;5004;-75
2021/05/14 04:23:06;;;;;;;8.68;1.40;;;;;;;19.25;42.58;100955.47;144994;608;5004;-76
2021/05/14 04:25:37;;;;;;;7.10;1.50;;;;;;;19.36;42.94;100948.47;144994;726;5004;-77
2021/05/14 04:28:04;;;;;;;6.45;1.40;;;;;;;19.53;42.44;100961.56;144994;699;5004;-77
2021/05/14 04:30:31;;;;;;;5.37;1.48;;;;;;;19.65;42.14;100971.19;144994;598;5004;-76
2021/05/14 04:32:59;;;;;;;7.87;1.65;;;;;;;19.74;41.96;100973.75;144994;601;5004;-78
2021/05/14 04:35:26;;;;;;;7.18;1.90;;;;;;;19.81;42.16;100975.53;144994;635;5004;-76
2021/05/14 04:37:53;;;;;;;4.87;1.70;;;;;;;19.86;41.93;100975.53;144994;569;5004;-76
2021/05/14 04:40:20;;;;;;;6.72;1.60;;;;;;;19.86;41.94;100986.06;144994;597;5004;-78
2021/05/14 04:42:47;;;;;;;6.95;1.65;;;;;;;19.94;41.87;100987.75;144994;585;5004;-78
2021/05/14 04:45:16;;;;;;;6.78;1.67;;;;;;;19.93;41.74;101001.84;144994;575;5004;-77
2021/05/14 04:47:52;;;;;;;11.57;1.80;;;;;;;20.01;41.72;101000.91;144994;568;5000;-78
2021/05/14 04:50:20;;;;;;;10.07;2.33;;;;;;;20.05;41.73;100998.25;144994;596;5004;-80
2021/05/14 04:52:48;;;;;;;9.57;2.00;;;;;;;20.13;42.05;101006.13;144994;637;5004;-78
2021/05/14 04:55:22;;;;;;;7.35;2.40;;;;;;;20.22;42.04;101000.81;144994;581;5004;-75
2021/05/14 04:57:50;;;;;;;10.02;2.85;;;;;;;20.12;41.67;101007.00;144994;596;5004;-76
2021/05/14 05:00:19;;;;;;;9.75;2.30;;;;;;;20.20;41.87;101013.13;144994;587;5004;-78
2021/05/14 05:02:46;;;;;;;8.13;2.25;;;;;;;20.32;42.18;101006.91;144994;655;5004;-79
2021/05/14 05:05:12;;;;;;;7.80;2.12;;;;;;;20.44;42.15;101006.81;144994;634;5004;-78
2021/05/14 05:07:40;;;;;;;6.57;2.20;;;;;;;20.52;41.66;101005.88;144994;573;5004;-77
2021/05/14 05:10:07;;;;;;;9.75;2.30;;;;;;;20.65;41.62;101005.84;144994;573;5004;-75
2021/05/14 05:12:34;;;;;;;6.32;2.00;;;;;;;20.79;41.52;101004.84;144994;588;5004;-78
2021/05/14 05:15:01;;;;;;;11.15;2.37;;;;;;;20.94;41.25;101010.00;144994;606;5004;-77
2021/05/14 05:17:28;;;;;;;8.07;2.50;;;;;;;21.04;40.99;101009.91;144994;564;5004;-78
2021/05/14 05:19:55;;;;;;;7.15;2.90;;;;;;;21.10;41.37;101013.37;144994;610;5004;-78
2021/05/14 05:22:24;;;;;;;8.07;3.40;;;;;;;21.20;41.16;101014.16;144994;565;5004;-78
2021/05/14 05:24:51;;;;;;;13.90;4.68;;;;;;;21.27;41.21;101018.50;144994;606;5004;-77
2021/05/14 05:27:17;;;;;;;11.45;3.85;;;;;;;21.34;40.64;101014.91;144994;593;5004;-78
2021/05/14 05:29:44;;;;;;;13.73;3.97;;;;;;;21.32;40.17;101016.69;144994;622;5004;-77
2021/05/14 05:32:10;;;;;;;12.27;4.20;;;;;;;21.34;41.38;101016.69;144994;605;5004;-76
2021/05/14 05:34:37;;;;;;;14.27;4.65;;;;;;;21.38;41.05;101016.63;144994;618;5004;-78
2021/05/14 05:37:04;;;;;;;15.85;5.00;;;;;;;21.37;41.27;101012.22;144994;616;5004;-77
2021/05/14 05:39:30;;;;;;;11.85;4.03;;;;;;;21.37;40.78;101016.66;144994;584;5004;-77
2021/05/14 05:41:57;;;;;;;9.02;2.70;;;;;;;21.25;38.62;101014.97;144994;612;5004;-78
2021/05/14 05:44:23;;;;;;;9.55;3.53;;;;;;;21.24;39.11;101025.56;144994;571;5004;-77
2021/05/14 05:46:50;;;;;;;6.75;3.50;;;;;;;21.09;37.71;101027.44;144993;571;5004;-78
2021/05/14 05:49:17;;;;;;;5.85;1.70;;;;;;;21.17;37.55;101024.75;144994;608;5002;-79
2021/05/14 05:51:43;;;;;;;4.65;1.70;;;;;;;21.23;39.98;101029.97;144994;569;5002;-78
2021/05/14 05:54:10;;;;;;;17.15;1.80;;;;;;;21.32;39.69;101037.81;144994;664;5002;-79
2021/05/14 05:56:36;;;;;;;5.62;1.87;;;;;;;21.34;37.47;101035.16;144994;641;5002;-77
2021/05/14 05:59:03;;;;;;;12.88;1.85;;;;;;;21.42;39.94;101048.28;144994;563;5002;-78
2021/05/14 06:01:30;;;;;;;4.65;1.20;;;;;;;21.55;40.28;101048.19;144994;607;5002;-79
2021/05/14 06:03:56;;;;;;;6.68;1.73;;;;;;;21.62;37.25;101056.91;144994;620;5002;-77
2021/05/14 06:06:23;;;;;;;7.03;0.90;;;;;;;21.64;39.14;101062.19;144994;572;5002;-77
2021/05/14 06:08:49;;;;;;;5.18;1.42;;;;;;;21.61;36.14;101063.09;144994;604;5002;-77
2021/05/14 06:11:15;;;;;;;4.47;1.60;;;;;;;21.54;36.43;101064.06;144994;667;5015;-77
2021/05/14 06:13:42;;;;;;;4.07;1.40;;;;;;;21.66;37.89;101063.91;144994;605;5002;-78
2021/05/14 06:16:09;;;;;;;4.85;1.20;;;;;;;21.67;37.17;101065.66;144994;588;5002;-78
2021/05/14 06:18:38;;;;;;;4.85;1.40;;;;;;;21.72;36.25;101055.03;144994;627;5002;-78
2021/05/14 06:21:06;;;;;;;3.83;1.37;;;;;;;21.83;36.20;101068.16;144994;644;5002;-77
2021/05/14 06:23:33;;;;;;;6.18;1.40;;;;;;;21.82;34.98;101075.19;144994;590;5002;-78
2021/05/14 06:26:00;;;;;;;6.57;1.12;;;;;;;21.95;36.15;101077.69;144994;653;5002;-78
2021/05/14 06:28:26;;;;;;;4.57;1.08;;;;;;;22.06;38.07;101087.25;144994;575;5002;-78
2021/05/14 06:30:53;;;;;;;3.90;1.00;;;;;;;22.18;38.33;101083.56;144994;569;5002;-78
2021/05/14 06:33:19;;;;;;;4.50;1.10;;;;;;;22.22;34.70;101082.66;144994;587;5002;-76
2021/05/14 06:35:48;;;;;;;3.95;1.20;;;;;;;22.35;38.14;101085.16;144994;617;5002;-78
2021/05/14 06:38:15;;;;;;;3.30;1.10;;;;;;;22.51;38.01;101092.00;144994;696;5002;-80
2021/05/14 06:40:42;;;;;;;3.37;0.80;;;;;;;22.59;37.88;101089.25;144994;586;5002;-77
2021/05/14 06:43:08;;;;;;;6.15;1.10;;;;;;;22.61;36.22;101084.81;144994;648;5002;-78
2021/05/14 06:45:35;;;;;;;4.40;1.15;;;;;;;22.50;34.84;101084.09;144994;627;5002;-77
2021/05/14 06:48:07;;;;;;;5.18;1.25;;;;;;;22.51;34.69;101088.47;144994;631;5002;-78
2021/05/14 06:50:34;;;;;;;3.62;1.30;;;;;;;22.43;34.68;101085.91;144994;618;5002;-78
2021/05/14 06:53:04;;;;;;;7.12;1.20;;;;;;;22.55;34.34;101087.53;144994;671;5002;-77
2021/05/14 06:55:31;;;;;;;4.95;1.30;;;;;;;22.79;37.16;101089.81;144994;627;5002;-75
2021/05/14 06:57:58;;;;;;;5.20;1.58;;;;;;;22.90;36.24;101083.50;144994;665;5002;-79
2021/05/14 07:00:24;;;;;;;5.07;1.98;;;;;;;22.79;34.15;101088.94;144994;657;5002;-77
2021/05/14 07:02:52;;;;;;;5.35;2.05;;;;;;;22.64;33.78;101080.34;144994;578;5002;-75
2021/05/14 07:05:19;;;;;;;5.82;1.70;;;;;;;22.51;35.33;101086.72;144994;638;5002;-75
2021/05/14 07:07:46;;;;;;;13.10;1.83;;;;;;;22.52;35.08;101080.50;144993;595;5002;-76
2021/05/14 07:10:13;;;;;;;8.95;4.53;;;;;;;22.59;34.72;101076.03;144994;611;5002;-77
2021/05/14 07:12:40;;;;;;;4.78;1.58;;;;;;;22.68;34.07;101075.88;144994;581;5002;-75
2021/05/14 07:15:10;;;;;;;5.18;1.00;;;;;;;22.74;33.80;101085.50;144994;617;5002;-77
2021/05/14 07:17:37;;;;;;;3.58;1.00;;;;;;;22.74;34.05;101083.72;144994;647;5002;-76
2021/05/14 07:20:05;;;;;;;3.42;0.85;;;;;;;22.70;33.67;101084.69;144994;573;5002;-77
2021/05/14 07:22:32;;;;;;;4.47;0.90;;;;;;;22.72;33.45;101077.59;144994;590;5002;-77
2021/05/14 07:24:58;;;;;;;3.80;1.10;;;;;;;22.80;33.57;101075.69;144994;569;5002;-78
2021/05/14 07:27:25;;;;;;;3.08;0.70;;;;;;;22.74;33.22;101081.06;144994;581;5002;-75
2021/05/14 07:29:51;;;;;;;7.15;1.98;;;;;;;22.70;34.05;101074.09;144994;585;5002;-77
2021/05/14 07:32:18;;;;;;;10.05;4.90;;;;;;;22.82;33.76;101073.87;144994;576;5002;-76
2021/05/14 07:34:44;;;;;;;13.38;7.93;;;;;;;23.01;35.27;101073.59;144994;577;5002;-76
2021/05/14 07:37:11;;;;;;;29.65;16.85;;;;;;;23.16;34.85;101073.41;144994;588;5002;-77
2021/05/14 07:39:38;;;;;;;10.98;4.87;;;;;;;23.22;33.19;101072.41;144994;603;5016;-78
2021/05/14 07:42:07;;;;;;;4.78;2.70;;;;;;;23.26;32.95;101067.94;144994;676;5002;-76
2021/05/14 07:44:35;;;;;;;3.92;1.67;;;;;;;23.30;32.58;101070.47;144994;637;5002;-77
2021/05/14 07:47:01;;;;;;;4.60;2.15;;;;;;;23.50;34.78;101062.19;144994;585;5002;-76
2021/05/14 07:49:28;;;;;;;7.35;2.20;;;;;;;23.61;33.01;101063.78;144994;580;5002;-77
2021/05/14 07:51:55;;;;;;;5.50;2.60;;;;;;;23.62;32.93;101070.81;144994;583;5002;-76
2021/05/14 07:54:21;;;;;;;8.57;4.40;;;;;;;23.66;33.09;101072.50;144994;570;4566;-76
2021/05/14 07:56:47;;;;;;;10.07;4.80;;;;;;;23.58;33.50;101074.44;144994;573;4572;-77
2021/05/14 07:59:14;;;;;;;8.85;4.50;;;;;;;23.68;32.67;101070.69;144992;601;6002;-76
2021/05/14 08:01:41;;;;;;;5.45;2.10;;;;;;;23.83;33.81;101065.16;144992;582;6002;-76
2021/05/14 08:04:07;;;;;;;6.30;1.30;;;;;;;23.88;31.97;101076.53;144992;573;6002;-76
2021/05/14 08:06:34;;;;;;;6.53;3.42;;;;;;;24.13;33.91;101067.19;144992;619;6002;-77
2021/05/14 08:09:05;;;;;;;11.82;6.70;;;;;;;24.04;31.94;101066.47;144992;669;6002;-76
2021/05/14 08:11:31;;;;;;;14.45;7.60;;;;;;;24.15;33.10;101068.00;144992;574;6002;-77
2021/05/14 08:13:57;;;;;;;10.65;5.25;;;;;;;24.29;32.46;101059.78;144992;681;6002;-76
2021/05/14 08:16:24;;;;;;;10.98;4.97;;;;;;;24.47;31.85;101061.13;144992;572;6002;-77
2021/05/14 08:18:51;;;;;;;12.98;6.90;;;;;;;24.59;31.73;101068.84;144992;653;6002;-77
2021/05/14 08:21:21;;;;;;;13.43;7.15;;;;;;;24.54;31.93;101063.63;144992;587;6002;-76
2021/05/14 08:23:48;;;;;;;9.35;3.37;;;;;;;24.59;32.19;101072.41;144992;597;6002;-76
2021/05/14 08:26:15;;;;;;;5.78;1.60;;;;;;;24.64;31.84;101066.97;144992;679;6002;-77
2021/05/14 08:28:41;;;;;;;14.32;8.70;;;;;;;24.69;32.53;101067.75;144992;642;6002;-77
2021/05/14 08:31:08;;;;;;;9.88;6.62;;;;;;;24.83;33.22;101069.19;144992;564;6002;-78
2021/05/14 08:33:35;;;;;;;5.12;1.98;;;;;;;24.77;32.00;101063.13;144992;618;6002;-77
2021/05/14 08:36:01;;;;;;;7.68;3.58;;;;;;;24.92;33.31;101059.22;144992;610;6002;-76
2021/05/14 08:38:28;;;;;;;5.15;2.60;;;;;;;24.73;31.03;101057.91;144992;563;6002;-76
2021/05/14 08:40:55;;;;;;;3.08;1.62;;;;;;;24.33;31.16;101053.50;144992;638;6002;-76
2021/05/14 08:43:22;;;;;;;6.65;2.50;;;;;;;24.52;32.05;101065.44;144992;575;6002;-77
2021/05/14 08:45:50;;;;;;;6.18;2.53;;;;;;;24.66;32.11;101054.53;144992;631;6002;-77
2021/05/14 08:48:17;;;;;;;5.68;2.55;;;;;;;24.88;32.00;101061.97;144992;577;6002;-75
2021/05/14 08:50:44;;;;;;;4.70;1.70;;;;;;;25.07;31.89;101057.09;144992;620;6002;-75
2021/05/14 08:53:10;;;;;;;4.62;1.50;;;;;;;25.24;30.86;101059.31;144992;653;6002;-76
2021/05/14 08:55:37;;;;;;;5.65;1.55;;;;;;;25.26;30.87;101055.72;144992;574;6002;-74
2021/05/14 08:58:03;;;;;;;3.45;1.50;;;;;;;25.42;31.35;101056.22;144992;625;6002;-77
2021/05/14 09:00:30;;;;;;;8.45;2.33;;;;;;;25.34;31.35;101059.09;144992;563;6002;-78
2021/05/14 09:02:56;;;;;;;6.78;1.65;;;;;;;25.45;31.51;101060.56;144992;564;6002;-75
2021/05/14 09:05:29;;;;;;;7.25;1.27;;;;;;;25.47;29.92;101050.78;144992;587;6002;-77
2021/05/14 09:07:56;;;;;;;7.15;1.92;;;;;;;25.39;29.29;101039.47;144992;593;6002;-77
2021/05/14 09:10:30;;;;;;;6.15;2.92;;;;;;;25.50;31.27;101034.72;144992;591;6002;-76
2021/05/14 09:12:58;;;;;;;5.85;1.50;;;;;;;25.62;30.12;101047.69;144992;570;6002;-76
2021/05/14 09:15:33;;;;;;;4.65;1.30;;;;;;;25.67;30.99;101037.78;144992;570;6002;-76
2021/05/14 09:18:19;;;;;;;5.53;1.17;;;;;;;25.68;29.33;101034.22;144992;628;6002;-77
2021/05/14 09:20:52;;;;;;;3.62;1.12;;;;;;;25.67;29.93;101020.97;144992;563;6002;-77
2021/05/14 09:23:33;;;;;;;3.67;1.52;;;;;;;25.71;30.09;101023.50;144992;600;6002;-77
2021/05/14 09:26:04;;;;;;;9.13;1.85;;;;;;;25.73;29.95;101026.13;144992;635;6002;-78
2021/05/14 09:28:35;;;;;;;3.08;1.27;;;;;;;25.82;30.49;101030.28;144992;585;6002;-77
2021/05/14 09:31:12;;;;;;;2.72;0.93;;;;;;;25.83;29.62;101026.72;144992;607;6002;-76
2021/05/14 09:33:44;;;;;;;4.35;1.55;;;;;;;25.83;29.76;101027.59;144992;575;6002;-76
2021/05/14 09:36:21;;;;;;;5.60;1.52;;;;;;;25.84;29.45;101024.03;144992;587;6002;-76
2021/05/14 09:38:56;;;;;;;3.10;1.30;;;;;;;25.89;28.55;101022.09;144992;582;6002;-76
2021/05/14 09:41:51;;;;;;;5.10;1.60;;;;;;;26.05;29.85;101013.72;144992;610;6002;-76
2021/05/14 09:44:20;;;;;;;5.18;2.60;;;;;;;26.10;29.99;101017.09;144992;561;6004;-76
2021/05/14 09:46:54;;;;;;;4.12;2.25;;;;;;;26.14;30.18;101017.91;144992;565;6004;-76
2021/05/14 09:49:23;;;;;;;4.15;1.92;;;;;;;26.20;29.42;101029.22;144992;575;6004;-77
2021/05/14 09:51:56;;;;;;;5.75;1.83;;;;;;;26.25;30.03;101035.25;144992;670;6004;-76
2021/05/14 09:54:28;;;;;;;7.27;4.30;;;;;;;26.15;28.31;101012.53;144992;610;6004;-76
2021/05/14 09:57:33;;;;;;;4.90;2.20;;;;;;;26.13;28.45;101013.47;144992;567;6004;-76
2021/05/14 10:00:07;;;;;;;3.65;0.70;;;;;;;26.23;27.83;101004.28;144992;623;6002;-76
2021/05/14 10:02:39;;;;;;;3.42;1.48;;;;;;;25.96;26.82;101006.84;144992;798;6002;-75
2021/05/14 10:05:15;;;;;;;6.97;1.15;;;;;;;25.94;26.79;101008.66;144992;589;6002;-75
2021/05/14 10:07:42;;;;;;;4.90;1.20;;;;;;;26.04;27.92;101009.28;144992;640;6004;-76
2021/05/14 10:10:11;;;;;;;2.17;0.93;;;;;;;26.01;26.53;101004.97;144992;585;6004;-77
2021/05/14 10:12:38;;;;;;;4.12;1.40;;;;;;;26.16;28.30;100998.28;144992;561;6004;-76
2021/05/14 10:15:09;;;;;;;3.75;0.90;;;;;;;26.29;26.90;100988.12;144992;628;6004;-76
2021/05/14 10:17:41;;;;;;;5.43;1.52;;;;;;;26.27;26.61;100982.00;144992;562;6004;-76
2021/05/14 10:20:14;;;;;;;4.28;1.08;;;;;;;26.34;27.14;100978.22;144992;628;6004;-76
2021/05/14 10:22:42;;;;;;;3.73;1.30;;;;;;;26.38;27.21;100976.34;144992;587;6004;-76
2021/05/14 10:25:09;;;;;;;4.90;1.25;;;;;;;26.39;27.82;100968.31;144992;590;6004;-77
2021/05/14 10:27:46;;;;;;;4.35;1.50;;;;;;;26.43;27.45;100971.72;144992;567;6004;-75
2021/05/14 10:30:15;;;;;;;5.78;1.40;;;;;;;26.50;27.03;100975.06;144992;636;6004;-76
2021/05/14 10:32:59;;;;;;;4.78;1.80;;;;;;;26.58;26.33;100976.56;144992;797;6004;-75
2021/05/14 10:35:34;;;;;;;5.43;1.10;;;;;;;26.58;26.78;100975.69;144992;791;6002;-76
2021/05/14 10:38:05;;;;;;;3.97;1.45;;;;;;;26.69;26.31;100973.56;144992;577;6002;-75
2021/05/14 10:40:42;;;;;;;2.67;0.98;;;;;;;26.64;25.30;100972.81;144992;600;6002;-75
2021/05/14 10:43:11;;;;;;;4.45;1.60;;;;;;;26.57;25.99;100973.94;144992;577;6002;-75
2021/05/14 10:45:42;;;;;;;4.32;1.35;;;;;;;26.58;26.36;100983.66;144992;604;6002;-75
2021/05/14 10:48:23;;;;;;;4.80;1.33;;;;;;;26.61;26.72;100988.88;144992;585;6002;-76
2021/05/14 10:50:56;;;;;;;3.25;1.25;;;;;;;26.68;30.26;100985.16;144992;573;6002;-76
2021/05/14 10:54:01;;;;;;;5.25;1.37;;;;;;;26.66;28.98;100983.44;144992;678;6002;-76
2021/05/14 10:56:27;;;;;;;6.68;1.52;;;;;;;26.60;31.58;100985.38;144992;608;6004;-74
2021/05/14 10:59:33;;;;;;;4.45;1.50;;;;;;;26.53;30.47;100989.13;144992;586;6004;-76
2021/05/14 11:02:01;;;;;;;2.17;1.00;;;;;;;26.54;32.07;100982.91;144992;616;6002;-76
2021/05/14 11:04:48;;;;;;;3.25;1.30;;;;;;;26.45;34.58;100987.66;144992;566;6002;-75
2021/05/14 11:07:47;;;;;;;3.70;0.90;;;;;;;25.76;38.23;100994.13;144992;566;6004;-75
2021/05/14 11:10:41;;;;;;;5.70;1.25;;;;;;;25.62;36.73;100993.66;144992;594;6002;-77
2021/05/14 11:13:37;;;;;;;5.53;1.42;;;;;;;24.89;38.82;100998.22;144992;570;6002;-76
2021/05/14 11:16:32;;;;;;;3.62;0.98;;;;;;;24.63;37.79;100993.56;144992;659;6002;-77
2021/05/14 11:18:59;;;;;;;12.82;5.53;;;;;;;24.79;37.17;100988.75;144992;577;6004;-77
2021/05/14 11:22:02;;;;;;;19.55;12.48;;;;;;;24.98;36.26;100987.38;144992;592;6004;-76
2021/05/14 11:24:48;;;;;;;4.12;2.40;;;;;;;25.15;35.46;100991.34;144992;579;6004;-76
2021/05/14 11:27:35;;;;;;;3.55;0.90;;;;;;;25.11;38.87;101008.31;144992;649;6004;-76
2021/05/14 11:30:05;;;;;;;4.53;1.20;;;;;;;24.93;39.26;101012.31;144992;565;6002;-77
2021/05/14 11:32:47;;;;;;;5.57;1.35;;;;;;;25.07;36.84;100996.91;144992;576;6002;-77
2021/05/14 11:35:25;;;;;;;5.35;1.05;;;;;;;25.16;35.62;101001.94;144992;581;6002;-75
2021/05/14 11:37:58;;;;;;;3.45;1.10;;;;;;;24.87;35.04;101012.47;144992;574;6002;-76
2021/05/14 11:40:30;;;;;;;5.57;1.08;;;;;;;24.91;35.19;100998.19;144992;598;6002;-76
2021/05/14 11:43:00;;;;;;;2.67;0.88;;;;;;;24.90;34.67;100993.81;144992;571;6002;-76
2021/05/14 11:45:34;;;;;;;3.85;0.80;;;;;;;24.92;34.88;100990.19;144992;597;6002;-73
2021/05/14 11:48:09;;;;;;;6.62;0.90;;;;;;;24.88;33.41;101015.09;144992;588;6002;-77